Time;durP1;ratioP1;P1;durP2;ratioP2;P2;SDS_P1;SDS_P2;PMS_P1;PMS_P2;Temp;Humidity;BMP_temperature;BMP_pressure;BME280_temperature;BME280_humidity;BME280_pressure;Samples;Min_cycle;Max_cycle;Signal;HPM_P1;HPM_P2
2021/08/25 00:01:49;;;;;;;2.90;2.40;;;;;;;23.12;67.65;102970.78;5093858;28;20032;-69
2021/08/25 00:04:14;;;;;;;3.55;2.50;;;;;;;23.12;67.51;102965.41;5102836;28;20039;-69
2021/08/25 00:06:39;;;;;;;4.68;2.55;;;;;;;23.12;67.78;102962.72;5108083;28;20035;-69
2021/08/25 00:09:06;;;;;;;4.07;2.75;;;;;;;23.12;67.38;102963.56;5069834;28;20051;-69
2021/08/25 00:11:31;;;;;;;3.83;2.60;;;;;;;23.13;67.54;102961.72;5102160;28;20125;-70
2021/08/25 00:13:58;;;;;;;2.78;2.20;;;;;;;23.12;67.59;102960.06;5109214;28;20122;-69
2021/08/25 00:16:24;;;;;;;3.90;2.75;;;;;;;23.12;67.75;102952.84;5106826;28;20040;-69
2021/08/25 00:18:49;;;;;;;3.83;2.55;;;;;;;23.12;67.50;102950.19;5053070;28;20086;-70
2021/08/25 00:21:15;;;;;;;3.80;2.58;;;;;;;23.12;67.68;102947.50;5088450;28;20465;-69
2021/08/25 00:23:40;;;;;;;3.65;2.50;;;;;;;23.12;67.60;102944.81;5070675;28;20048;-69
2021/08/25 00:26:05;;;;;;;4.57;2.75;;;;;;;23.13;67.60;102948.34;5088179;28;20028;-69
2021/08/25 00:28:31;;;;;;;2.60;2.30;;;;;;;23.12;67.39;102944.81;5091245;28;20043;-69
2021/08/25 00:30:56;;;;;;;3.50;2.50;;;;;;;23.12;67.55;102935.97;5088530;28;20416;-69
2021/08/25 00:33:22;;;;;;;3.72;2.65;;;;;;;23.13;67.57;102943.00;5070354;28;20047;-69
2021/08/25 00:35:47;;;;;;;4.53;2.50;;;;;;;23.12;67.63;102939.47;5070919;28;20024;-69
2021/08/25 00:38:13;;;;;;;2.92;2.20;;;;;;;23.13;67.66;102937.63;5051983;28;20057;-69
2021/08/25 00:40:38;;;;;;;3.50;2.20;;;;;;;23.12;67.67;102942.16;5070795;28;20089;-70
2021/08/25 00:43:10;;;;;;;3.05;2.30;;;;;;;23.11;67.71;102937.81;5068352;28;20476;-69
2021/08/25 00:45:39;;;;;;;3.33;2.20;;;;;;;23.11;67.56;102937.81;5072446;28;20032;-69
2021/08/25 00:48:06;;;;;;;3.00;2.30;;;;;;;23.13;67.67;102932.28;5067666;28;20033;-69
2021/08/25 00:50:32;;;;;;;3.45;2.53;;;;;;;23.13;67.64;102934.97;5072622;28;20543;-69
2021/08/25 00:52:57;;;;;;;3.30;2.50;;;;;;;23.13;67.71;102927.75;5067812;28;20094;-69
2021/08/25 00:55:23;;;;;;;3.03;2.40;;;;;;;23.13;67.69;102927.75;5049866;28;20032;-70
2021/08/25 00:57:50;;;;;;;2.95;2.28;;;;;;;23.14;67.80;102925.91;5068122;28;20055;-69
2021/08/25 01:00:16;;;;;;;3.45;2.50;;;;;;;23.13;67.59;102917.03;5075090;28;20524;-69
2021/08/25 01:02:55;;;;;;;3.28;2.42;;;;;;;23.10;67.73;102917.41;5071371;28;20120;-70
2021/08/25 01:05:23;;;;;;;3.60;2.30;;;;;;;23.14;67.93;102915.22;5086732;28;20044;-68
2021/08/25 01:07:48;;;;;;;4.10;2.55;;;;;;;23.12;67.48;102910.03;5037751;28;20520;-69
2021/08/25 01:10:26;;;;;;;3.75;2.40;;;;;;;23.11;67.72;102911.03;5079498;28;20127;-70
2021/08/25 01:12:54;;;;;;;3.58;2.63;;;;;;;23.12;67.47;102904.66;5091241;28;20051;-70
2021/08/25 01:15:20;;;;;;;3.47;2.38;;;;;;;23.12;67.65;102907.34;5074931;28;20082;-70
2021/08/25 01:17:47;;;;;;;3.55;2.58;;;;;;;23.14;67.91;102901.81;5037830;28;20044;-70
2021/08/25 01:20:14;;;;;;;3.40;2.85;;;;;;;23.13;67.60;102897.47;5084935;28;20185;-69
2021/08/25 01:22:41;;;;;;;2.90;2.22;;;;;;;23.13;67.57;102900.16;5034698;28;20029;-70
2021/08/25 01:25:08;;;;;;;3.45;2.50;;;;;;;23.12;67.64;102893.97;5064615;28;20111;-69
2021/08/25 01:27:38;;;;;;;3.22;2.60;;;;;;;23.11;67.79;102889.63;5054055;28;20033;-70
2021/08/25 01:30:06;;;;;;;4.18;2.38;;;;;;;23.13;67.98;102890.28;5056120;28;20032;-69
2021/08/25 01:32:35;;;;;;;3.28;2.45;;;;;;;23.12;67.69;102888.59;5074020;28;20197;-69
2021/08/25 01:35:01;;;;;;;3.15;2.30;;;;;;;23.12;67.70;102883.25;5075658;28;20086;-69
2021/08/25 01:37:27;;;;;;;3.00;2.53;;;;;;;23.12;67.89;102880.56;5055581;28;20075;-70
2021/08/25 01:39:54;;;;;;;3.10;2.30;;;;;;;23.13;67.57;102881.41;5075978;28;20020;-69
2021/08/25 01:42:20;;;;;;;3.08;2.25;;;;;;;23.13;67.62;102881.41;5073356;28;20044;-69
2021/08/25 01:44:46;;;;;;;3.40;2.30;;;;;;;23.13;67.60;102868.03;5077416;28;20032;-69
2021/08/25 01:47:14;;;;;;;3.22;2.50;;;;;;;23.12;67.88;102872.53;5052246;28;20025;-69
2021/08/25 01:49:39;;;;;;;3.28;2.33;;;;;;;23.13;67.69;102876.06;5053254;28;20097;-69
2021/08/25 01:52:05;;;;;;;3.60;2.53;;;;;;;23.12;67.76;102869.88;5081214;28;20029;-69
2021/08/25 01:54:31;;;;;;;3.55;2.30;;;;;;;23.13;67.51;102873.38;5091292;28;20055;-70
2021/08/25 01:56:57;;;;;;;3.60;2.40;;;;;;;23.12;67.68;102867.19;5077798;28;20037;-69
2021/08/25 01:59:22;;;;;;;2.58;2.00;;;;;;;23.12;68.00;102872.53;5085965;28;20059;-70
2021/08/25 02:01:48;;;;;;;3.08;2.42;;;;;;;23.12;67.46;102867.19;5085176;28;20390;-69
2021/08/25 02:04:13;;;;;;;3.17;2.35;;;;;;;23.12;67.67;102864.50;5063935;28;20029;-69
2021/08/25 02:06:39;;;;;;;3.45;2.58;;;;;;;23.13;67.60;102860.00;5080739;28;20028;-70
2021/08/25 02:09:05;;;;;;;4.40;2.30;;;;;;;23.13;67.69;102863.50;5088816;28;20040;-70
2021/08/25 02:11:30;;;;;;;3.42;2.53;;;;;;;23.14;67.71;102864.34;5088259;28;20467;-69
2021/08/25 02:13:56;;;;;;;3.42;2.33;;;;;;;23.13;67.49;102857.31;5072067;28;20036;-70
2021/08/25 02:16:21;;;;;;;2.97;2.17;;;;;;;23.13;67.67;102852.78;5075657;28;20039;-67
2021/08/25 02:18:47;;;;;;;3.05;2.30;;;;;;;23.13;67.61;102857.31;5068566;28;20033;-67
2021/08/25 02:21:13;;;;;;;3.00;2.50;;;;;;;23.11;67.62;102852.13;5069761;28;20388;-67
2021/08/25 02:23:39;;;;;;;3.45;2.33;;;;;;;23.13;67.80;102846.59;5076818;28;20121;-67
2021/08/25 02:26:05;;;;;;;3.00;2.25;;;;;;;23.13;67.80;102847.44;5071982;28;20069;-67
2021/08/25 02:28:30;;;;;;;2.83;2.20;;;;;;;23.13;67.91;102847.44;5091611;28;20036;-67
2021/08/25 02:30:57;;;;;;;3.33;2.50;;;;;;;23.14;67.56;102845.59;5090283;28;20036;-67
2021/08/25 02:33:22;;;;;;;2.85;2.25;;;;;;;23.13;67.75;102842.09;5070033;28;20166;-67
2021/08/25 02:35:48;;;;;;;3.03;2.42;;;;;;;23.13;67.46;102842.09;5073817;28;20493;-67
2021/08/25 02:38:13;;;;;;;2.80;2.38;;;;;;;23.13;67.53;102833.22;5110210;28;20076;-67
2021/08/25 02:40:39;;;;;;;3.40;2.42;;;;;;;23.14;67.77;102837.56;5093304;28;20039;-67
2021/08/25 02:43:06;;;;;;;3.08;2.17;;;;;;;23.13;67.86;102834.06;5078037;28;20043;-67
2021/08/25 02:45:31;;;;;;;3.17;2.30;;;;;;;23.14;67.76;102838.41;5111685;28;20090;-67
2021/08/25 02:47:57;;;;;;;3.47;2.40;;;;;;;23.14;67.76;102837.56;5104151;28;20064;-67
2021/08/25 02:50:23;;;;;;;4.93;2.22;;;;;;;23.13;67.74;102836.72;5093177;28;20027;-67
2021/08/25 02:52:48;;;;;;;3.60;2.55;;;;;;;23.13;67.80;102836.72;5109807;28;20028;-67
2021/08/25 02:55:14;;;;;;;2.90;2.20;;;;;;;23.13;67.66;102834.06;5089997;28;20036;-67
2021/08/25 02:57:39;;;;;;;3.58;2.40;;;;;;;23.13;67.52;102834.06;5072459;28;20034;-67
2021/08/25 03:00:06;;;;;;;3.03;2.33;;;;;;;23.13;67.90;102834.06;5056477;28;20471;-67
2021/08/25 03:02:31;;;;;;;3.22;2.35;;;;;;;23.14;67.66;102838.41;5100761;28;20044;-67
2021/08/25 03:04:57;;;;;;;3.65;2.78;;;;;;;23.13;67.99;102833.22;5109955;28;20057;-67
2021/08/25 03:07:22;;;;;;;3.03;2.28;;;;;;;23.12;67.62;102829.72;5086524;28;20069;-68
2021/08/25 03:09:47;;;;;;;4.45;2.42;;;;;;;23.13;67.84;102826.03;5069571;28;20044;-68
2021/08/25 03:12:13;;;;;;;3.47;2.58;;;;;;;23.13;67.48;102823.34;5109859;28;20034;-67
2021/08/25 03:14:38;;;;;;;2.92;2.13;;;;;;;23.13;67.83;102826.03;5080281;28;20046;-68
2021/08/25 03:17:04;;;;;;;3.55;2.28;;;;;;;23.12;67.77;102824.34;5106401;28;20118;-68
2021/08/25 03:19:29;;;;;;;3.42;2.40;;;;;;;23.13;67.75;102831.38;5081619;28;20409;-68
2021/08/25 03:21:55;;;;;;;3.10;2.35;;;;;;;23.12;68.01;102832.38;5060935;28;20070;-68
2021/08/25 03:24:21;;;;;;;2.67;2.10;;;;;;;23.12;67.58;102813.66;5110000;28;20046;-67
2021/08/25 03:26:47;;;;;;;3.40;2.40;;;;;;;23.12;67.70;102824.34;5106965;28;20050;-67
2021/08/25 03:29:12;;;;;;;3.63;2.60;;;;;;;23.13;67.69;102817.16;5093934;28;20028;-67
2021/08/25 03:31:38;;;;;;;3.15;2.42;;;;;;;23.13;67.64;102819.84;5110195;28;20433;-67
2021/08/25 03:34:03;;;;;;;3.28;2.40;;;;;;;23.12;67.78;102819.00;5094846;28;20321;-67
2021/08/25 03:36:29;;;;;;;3.13;2.25;;;;;;;23.13;67.80;102817.16;5084793;28;20058;-67
2021/08/25 03:38:54;;;;;;;3.40;2.47;;;;;;;23.13;67.68;102817.16;5076740;28;20044;-67
2021/08/25 03:41:19;;;;;;;3.28;2.42;;;;;;;23.13;67.54;102815.31;5070949;28;20479;-67
2021/08/25 03:43:45;;;;;;;3.58;2.38;;;;;;;23.11;67.52;102806.63;5110017;28;20625;-67
2021/08/25 03:46:13;;;;;;;2.70;2.03;;;;;;;23.12;67.77;102816.31;5108619;28;20398;-67
2021/08/25 03:48:38;;;;;;;3.92;2.53;;;;;;;23.13;67.84;102809.13;5085053;28;20452;-69
2021/08/25 03:51:04;;;;;;;3.25;2.47;;;;;;;23.12;68.01;102813.66;5095147;28;20040;-67
2021/08/25 03:53:29;;;;;;;3.53;2.25;;;;;;;23.11;67.86;102805.78;5089332;28;20040;-67
2021/08/25 03:55:55;;;;;;;3.03;2.17;;;;;;;23.12;67.98;102808.28;5101547;28;20681;-67
2021/08/25 03:58:20;;;;;;;2.75;2.30;;;;;;;23.13;67.64;102809.13;5088668;28;20483;-67
2021/08/25 04:00:46;;;;;;;3.63;2.40;;;;;;;23.13;67.78;102795.75;5096122;28;20040;-67
2021/08/25 04:03:11;;;;;;;3.30;2.55;;;;;;;23.12;67.70;102802.09;5088880;28;20513;-67
2021/08/25 04:05:37;;;;;;;2.88;2.20;;;;;;;23.12;67.70;102802.94;5096487;28;20394;-68
2021/08/25 04:08:03;;;;;;;2.83;2.05;;;;;;;23.12;67.86;102800.25;5090257;28;20160;-69
2021/08/25 04:10:28;;;;;;;3.28;2.20;;;;;;;23.12;67.81;102796.75;5075264;28;20035;-68
2021/08/25 04:12:53;;;;;;;2.80;2.15;;;;;;;23.12;67.54;102799.44;5072839;28;20472;-68
2021/08/25 04:15:19;;;;;;;2.75;1.90;;;;;;;23.13;67.92;102795.75;5095936;28;20028;-68
2021/08/25 04:17:45;;;;;;;2.70;2.10;;;;;;;23.12;67.61;102800.25;5094088;28;20053;-68
2021/08/25 04:20:11;;;;;;;2.85;2.08;;;;;;;23.13;67.61;102796.56;5089712;28;20024;-68
2021/08/25 04:22:36;;;;;;;2.90;2.30;;;;;;;23.12;67.63;102792.22;5092216;28;20092;-68
2021/08/25 04:25:02;;;;;;;3.67;2.30;;;;;;;23.12;67.45;102791.38;5099118;28;20031;-68
2021/08/25 04:27:28;;;;;;;2.83;2.25;;;;;;;23.12;67.64;102794.91;5105888;28;20522;-68
2021/08/25 04:29:53;;;;;;;2.88;2.13;;;;;;;23.12;67.57;102794.91;5098671;28;20116;-68
2021/08/25 04:32:19;;;;;;;2.95;2.35;;;;;;;23.12;67.49;102791.38;5102348;28;20057;-68
2021/08/25 04:34:44;;;;;;;3.40;2.70;;;;;;;23.11;67.90;102790.56;5097057;28;20378;-68
2021/08/25 04:37:09;;;;;;;2.95;2.25;;;;;;;23.12;67.50;102794.06;5104492;28;20109;-69
2021/08/25 04:39:35;;;;;;;2.92;2.20;;;;;;;23.12;67.81;102797.59;5093405;28;20027;-68
2021/08/25 04:42:00;;;;;;;2.50;1.90;;;;;;;23.12;67.86;102794.91;5089617;28;20048;-68
2021/08/25 04:44:26;;;;;;;3.25;2.28;;;;;;;23.12;67.58;102796.75;5071437;28;20031;-68
2021/08/25 04:46:51;;;;;;;3.13;2.50;;;;;;;23.12;67.81;102794.06;5076193;28;20031;-68
2021/08/25 04:49:17;;;;;;;3.00;2.30;;;;;;;23.11;67.71;102801.28;5077352;28;20487;-68
2021/08/25 04:51:42;;;;;;;3.10;2.50;;;;;;;23.12;67.82;102807.47;5094890;28;20352;-68
2021/08/25 04:54:07;;;;;;;2.78;2.05;;;;;;;23.11;67.52;102801.28;5082111;28;20055;-68
2021/08/25 04:56:33;;;;;;;3.20;2.30;;;;;;;23.12;67.48;102799.44;5072858;28;20051;-68
2021/08/25 04:58:58;;;;;;;2.90;2.20;;;;;;;23.12;67.71;102800.25;5083135;28;20040;-68
2021/08/25 05:01:24;;;;;;;2.80;2.20;;;;;;;23.12;67.78;102808.28;5087599;28;20040;-68
2021/08/25 05:03:50;;;;;;;3.15;2.22;;;;;;;23.12;67.57;102808.28;5079682;28;20093;-68
2021/08/25 05:06:17;;;;;;;3.15;2.60;;;;;;;23.13;67.67;102811.81;5082429;28;20043;-68
2021/08/25 05:08:43;;;;;;;2.97;2.60;;;;;;;23.12;67.58;102802.94;5072910;28;20032;-68
2021/08/25 05:11:09;;;;;;;3.25;2.30;;;;;;;23.11;67.71;102801.28;5088055;28;20036;-68
2021/08/25 05:13:37;;;;;;;3.30;2.30;;;;;;;23.12;67.49;102802.09;5090746;28;20043;-69
2021/08/25 05:16:08;;;;;;;3.28;2.20;;;;;;;23.12;67.74;102810.13;5088390;28;20040;-68
2021/08/25 05:18:34;;;;;;;3.17;2.30;;;;;;;23.11;67.70;102809.31;5069639;28;20387;-69
2021/08/25 05:21:00;;;;;;;3.67;2.33;;;;;;;23.12;67.66;102812.81;5098904;28;20065;-69
2021/08/25 05:23:25;;;;;;;3.78;2.67;;;;;;;23.11;67.54;102811.97;5097473;28;20032;-68
2021/08/25 05:25:51;;;;;;;3.15;2.33;;;;;;;23.12;67.64;102810.97;5092598;28;20044;-68
2021/08/25 05:28:16;;;;;;;3.28;2.60;;;;;;;23.12;67.54;102810.13;5073917;28;20097;-68
2021/08/25 05:30:42;;;;;;;3.15;2.30;;;;;;;23.11;67.56;102797.75;5105872;28;20624;-68
2021/08/25 05:33:07;;;;;;;3.20;2.38;;;;;;;23.12;67.77;102802.09;5088865;28;20040;-68
2021/08/25 05:35:33;;;;;;;2.72;2.35;;;;;;;23.11;67.69;102805.78;5080562;28;20036;-68
2021/08/25 05:37:58;;;;;;;2.85;2.17;;;;;;;23.11;67.72;102801.28;5076277;28;20044;-68
2021/08/25 05:40:23;;;;;;;4.38;2.70;;;;;;;23.11;67.66;102806.63;5068632;28;20028;-68
2021/08/25 05:42:49;;;;;;;3.30;2.40;;;;;;;23.10;67.62;102810.31;5068486;28;20035;-68
2021/08/25 05:45:14;;;;;;;3.65;2.72;;;;;;;23.11;67.49;102811.13;5069868;28;20049;-68
2021/08/25 05:47:40;;;;;;;3.10;2.40;;;;;;;23.11;67.82;102806.63;5068351;28;20033;-68
2021/08/25 05:50:08;;;;;;;3.50;2.50;;;;;;;23.11;67.36;102803.09;5070904;28;20065;-68
2021/08/25 05:52:33;;;;;;;3.30;2.33;;;;;;;23.10;67.79;102796.91;5071629;28;20040;-69
2021/08/25 05:54:59;;;;;;;2.95;2.20;;;;;;;23.11;67.42;102795.09;5065749;28;20040;-68
2021/08/25 05:57:24;;;;;;;3.03;2.25;;;;;;;23.11;67.74;102800.44;5077401;28;20043;-68
2021/08/25 05:59:50;;;;;;;3.30;2.35;;;;;;;23.10;67.60;102794.25;5071015;28;20025;-68
2021/08/25 06:02:16;;;;;;;4.00;2.30;;;;;;;23.10;67.58;102796.91;5071224;28;20040;-68
2021/08/25 06:04:41;;;;;;;3.10;2.30;;;;;;;23.10;67.54;102794.25;5039160;28;20044;-68
2021/08/25 06:07:08;;;;;;;2.58;2.00;;;;;;;23.10;67.64;102788.88;5076236;28;20044;-68
2021/08/25 06:09:34;;;;;;;3.20;2.42;;;;;;;23.10;67.28;102794.25;5069775;28;20036;-68
2021/08/25 06:11:59;;;;;;;3.08;2.40;;;;;;;23.11;67.46;102789.72;5072279;28;20345;-68
2021/08/25 06:14:25;;;;;;;3.03;2.33;;;;;;;23.10;67.60;102788.06;5070752;28;20413;-69
2021/08/25 06:16:50;;;;;;;2.75;2.20;;;;;;;23.10;67.89;102793.41;5059330;28;20036;-68
2021/08/25 06:19:16;;;;;;;3.33;2.28;;;;;;;23.10;67.67;102791.56;5072304;28;20074;-68
2021/08/25 06:21:45;;;;;;;3.70;2.60;;;;;;;23.11;67.78;102808.47;5049363;28;20507;-68
2021/08/25 06:24:11;;;;;;;3.40;2.70;;;;;;;23.10;67.64;102796.09;5074346;28;20116;-68
2021/08/25 06:26:36;;;;;;;3.05;2.10;;;;;;;23.10;67.74;102796.91;5078244;28;20434;-68
2021/08/25 06:29:02;;;;;;;2.50;2.10;;;;;;;23.11;67.70;102795.09;5082733;28;20036;-70
2021/08/25 06:31:28;;;;;;;3.38;2.30;;;;;;;23.10;67.66;102796.91;5079350;28;20483;-70
2021/08/25 06:33:53;;;;;;;3.42;2.30;;;;;;;23.10;67.73;102802.28;5059237;28;20067;-70
2021/08/25 06:36:19;;;;;;;4.97;2.10;;;;;;;23.12;67.88;102794.06;5047458;28;20033;-71
2021/08/25 06:38:45;;;;;;;5.95;2.70;;;;;;;23.11;68.17;102790.56;5048916;28;20060;-68
2021/08/25 06:41:10;;;;;;;6.85;3.08;;;;;;;23.10;68.21;102788.88;5089892;28;20036;-69
2021/08/25 06:43:37;;;;;;;6.65;2.80;;;;;;;23.11;68.24;102787.88;5064620;28;20264;-68
2021/08/25 06:46:02;;;;;;;8.40;3.85;;;;;;;23.12;68.74;102780.69;5085635;28;20040;-68
2021/08/25 06:48:28;;;;;;;14.65;5.72;;;;;;;23.14;68.64;102786.69;5087978;28;20595;-70
2021/08/25 06:50:53;;;;;;;11.90;6.72;;;;;;;23.13;68.42;102783.19;5097445;28;20031;-70
2021/08/25 06:53:20;;;;;;;12.48;7.10;;;;;;;23.13;68.32;102788.53;5097913;28;20051;-70
2021/08/25 06:55:45;;;;;;;13.30;7.82;;;;;;;23.13;67.93;102783.19;5097150;28;20035;-69
2021/08/25 06:58:10;;;;;;;11.88;7.07;;;;;;;23.13;68.07;102785.03;5088412;28;20466;-70
2021/08/25 07:00:36;;;;;;;14.73;7.47;;;;;;;23.13;68.03;102780.50;5090466;28;20110;-70
2021/08/25 07:03:02;;;;;;;11.93;7.45;;;;;;;23.14;68.16;102790.22;5089691;28;20036;-69
2021/08/25 07:05:27;;;;;;;13.07;7.20;;;;;;;23.14;68.26;102781.34;5086414;28;20058;-74
2021/08/25 07:07:53;;;;;;;11.38;6.80;;;;;;;23.15;68.59;102791.03;5071585;28;20032;-75
2021/08/25 07:10:18;;;;;;;12.27;7.43;;;;;;;23.15;68.20;102786.53;5087960;28;20118;-71
2021/08/25 07:12:44;;;;;;;12.75;7.35;;;;;;;23.15;68.60;102791.03;5091047;28;20043;-71
2021/08/25 07:15:16;;;;;;;13.52;8.18;;;;;;;23.15;68.32;102794.56;5078824;28;20514;-70
2021/08/25 07:17:41;;;;;;;12.25;6.95;;;;;;;23.16;68.39;102792.72;5067901;28;20055;-68
2021/08/25 07:20:07;;;;;;;12.40;7.47;;;;;;;23.17;68.13;102791.69;5072534;28;20040;-74
2021/08/25 07:22:33;;;;;;;13.32;7.68;;;;;;;23.16;68.18;102790.88;5088459;28;20043;-71
2021/08/25 07:24:58;;;;;;;10.93;6.65;;;;;;;23.17;67.94;102786.34;5046313;28;20047;-70
2021/08/25 07:27:23;;;;;;;13.93;7.18;;;;;;;23.17;68.00;102783.66;5067260;28;20082;-72
2021/08/25 07:29:51;;;;;;;11.60;6.93;;;;;;;23.17;68.10;102787.19;5052748;28;20071;-73
2021/08/25 07:32:16;;;;;;;11.48;7.40;;;;;;;23.17;67.94;102789.84;5088912;28;20040;-71
2021/08/25 07:34:42;;;;;;;11.60;6.18;;;;;;;23.18;68.10;102786.16;5095641;28;20822;-72
2021/08/25 07:37:07;;;;;;;12.30;7.05;;;;;;;23.17;67.90;102784.50;5079851;28;20100;-73
2021/08/25 07:39:33;;;;;;;10.57;6.15;;;;;;;23.17;67.81;102789.84;5065833;28;20395;-73
2021/08/25 07:41:58;;;;;;;12.77;6.30;;;;;;;23.18;67.79;102790.69;5046122;28;20376;-72
2021/08/25 07:44:24;;;;;;;12.50;7.20;;;;;;;23.18;67.98;102790.69;5064994;28;20530;-72
2021/08/25 07:46:52;;;;;;;13.68;6.72;;;;;;;23.19;67.90;102795.03;5084529;28;20494;-73
2021/08/25 07:49:18;;;;;;;11.00;6.68;;;;;;;23.19;67.69;102795.03;5081197;28;20224;-72
2021/08/25 07:51:43;;;;;;;8.70;5.97;;;;;;;23.19;67.74;102795.88;5092292;28;20522;-72
2021/08/25 07:54:09;;;;;;;12.40;7.43;;;;;;;23.19;67.69;102798.53;5092387;28;20088;-71
2021/08/25 07:56:34;;;;;;;10.40;6.53;;;;;;;23.18;67.50;102801.41;5052787;28;20028;-71
2021/08/25 07:59:00;;;;;;;13.95;7.13;;;;;;;23.19;67.54;102803.06;5074700;28;20558;-72
2021/08/25 08:01:26;;;;;;;14.90;10.18;;;;;;;23.17;66.43;102800.56;5073432;28;20160;-71
2021/08/25 08:03:51;;;;;;;13.05;9.65;;;;;;;23.13;65.23;102793.06;5089418;28;20063;-71
2021/08/25 08:06:18;;;;;;;10.35;7.53;;;;;;;23.10;65.17;102799.59;5055284;28;20036;-71
2021/08/25 08:08:44;;;;;;;13.27;8.45;;;;;;;23.11;64.57;102793.25;5091423;28;20040;-71
2021/08/25 08:11:09;;;;;;;13.50;7.82;;;;;;;23.08;64.22;102790.91;5092292;28;20134;-72
2021/08/25 08:13:35;;;;;;;12.15;7.60;;;;;;;23.09;64.40;102792.56;5089071;28;20384;-71
2021/08/25 08:16:01;;;;;;;16.02;8.70;;;;;;;23.08;63.91;102782.88;5072243;28;20047;-72
2021/08/25 08:19:03;;;;;;;17.38;8.75;;;;;;;23.09;63.97;102784.53;5100078;28;20031;-72
2021/08/25 08:21:18;;;;;;;13.43;8.32;;;;;;;23.09;63.95;102791.75;5081900;28;20094;-72
2021/08/25 08:23:43;;;;;;;18.45;9.57;;;;;;;23.07;64.28;102786.56;5095766;28;20028;-72
2021/08/25 08:26:09;;;;;;;14.32;9.18;;;;;;;23.07;64.01;102783.06;5077352;28;20466;-72
2021/08/25 08:28:34;;;;;;;13.70;8.23;;;;;;;23.07;64.04;102778.53;5095816;28;20477;-71
2021/08/25 08:30:59;;;;;;;17.27;8.55;;;;;;;23.07;64.14;102772.34;5094879;28;20054;-72
2021/08/25 08:33:25;;;;;;;14.13;8.73;;;;;;;23.08;63.90;102779.38;5085057;28;20033;-71
2021/08/25 08:35:50;;;;;;;15.52;8.18;;;;;;;23.08;64.06;102776.69;5079910;28;20063;-71
2021/08/25 08:38:16;;;;;;;14.63;8.05;;;;;;;23.08;63.78;102779.38;5040910;28;20110;-71
2021/08/25 08:40:41;;;;;;;13.73;7.70;;;;;;;23.08;63.78;102776.69;5062660;28;20063;-72
2021/08/25 08:43:09;;;;;;;14.27;8.15;;;;;;;23.09;63.76;102776.50;5037954;28;20040;-71
2021/08/25 08:45:42;;;;;;;15.38;8.27;;;;;;;23.07;63.54;102775.84;5067385;28;20029;-71
2021/08/25 08:48:09;;;;;;;14.02;7.32;;;;;;;23.08;63.54;102777.53;5053951;28;20124;-71
2021/08/25 08:50:39;;;;;;;12.85;7.50;;;;;;;23.08;63.37;102780.19;5066366;28;20021;-71
2021/08/25 08:53:08;;;;;;;16.52;9.82;;;;;;;23.09;63.43;102778.34;5066455;28;20070;-72
2021/08/25 08:55:33;;;;;;;15.85;8.40;;;;;;;23.08;63.03;102774.84;5036768;28;20078;-71
2021/08/25 08:57:59;;;;;;;18.92;9.00;;;;;;;23.08;63.39;102774.00;5064646;28;20045;-71
2021/08/25 09:00:24;;;;;;;16.98;9.18;;;;;;;23.06;63.08;102776.88;5066928;28;20036;-71
2021/08/25 09:02:50;;;;;;;11.90;7.95;;;;;;;23.07;63.24;102775.03;5064326;28;20353;-71
2021/08/25 09:05:17;;;;;;;16.65;8.48;;;;;;;23.07;63.09;102772.34;5065658;28;20365;-71
2021/08/25 09:07:58;;;;;;;15.10;7.95;;;;;;;23.05;62.89;102772.53;5058321;28;20040;-72
2021/08/25 09:10:33;;;;;;;13.90;7.75;;;;;;;23.04;62.81;102768.19;5064014;28;20036;-71
2021/08/25 09:13:12;;;;;;;11.68;7.18;;;;;;;23.04;63.05;102762.81;5057259;28;20082;-71
2021/08/25 09:15:40;;;;;;;10.35;7.75;;;;;;;23.07;62.68;102762.47;5067625;28;20117;-71
2021/08/25 09:18:12;;;;;;;14.23;8.32;;;;;;;23.08;62.84;102758.78;5062337;28;20076;-71
2021/08/25 09:20:46;;;;;;;11.02;6.95;;;;;;;23.07;62.49;102764.31;5068243;28;20478;-72
2021/08/25 09:23:19;;;;;;;11.80;7.60;;;;;;;23.07;62.36;102762.47;5055773;28;20491;-71
2021/08/25 09:25:54;;;;;;;10.98;7.07;;;;;;;23.07;62.44;102767.81;5071936;28;20057;-71
2021/08/25 09:28:28;;;;;;;11.82;6.88;;;;;;;23.08;62.16;102765.97;5072640;28;20047;-71
2021/08/25 09:31:00;;;;;;;10.10;6.57;;;;;;;23.08;62.32;102760.63;5063964;28;20072;-71
2021/08/25 09:33:34;;;;;;;14.20;6.63;;;;;;;23.09;62.36;102760.44;5062011;28;20435;-72
2021/08/25 09:36:05;;;;;;;11.40;6.53;;;;;;;23.09;62.74;102759.63;5062515;28;20050;-71
2021/08/25 09:38:32;;;;;;;9.95;5.85;;;;;;;23.09;62.06;102759.63;5100700;28;20086;-71
2021/08/25 09:41:09;;;;;;;10.18;5.53;;;;;;;23.06;62.31;102757.28;5097389;28;20058;-71
2021/08/25 09:43:38;;;;;;;9.85;5.32;;;;;;;23.07;62.33;102746.41;5112284;28;20176;-71
2021/08/25 09:46:04;;;;;;;8.68;5.40;;;;;;;23.09;62.36;102754.25;5098018;28;20031;-72
2021/08/25 09:48:48;;;;;;;7.82;5.10;;;;;;;23.05;62.22;102753.78;5094937;28;20743;-72
2021/08/25 09:51:16;;;;;;;10.90;5.05;;;;;;;23.09;62.04;102752.41;5099687;28;20157;-72
2021/08/25 09:53:44;;;;;;;7.65;4.60;;;;;;;23.10;62.21;102756.75;5094953;28;20054;-71
2021/08/25 09:56:37;;;;;;;6.28;4.40;;;;;;;23.06;62.39;102754.63;5102962;28;20027;-71
2021/08/25 09:59:05;;;;;;;8.13;4.60;;;;;;;23.10;62.30;102759.44;5084691;28;20059;-72
2021/08/25 10:01:30;;;;;;;9.77;4.03;;;;;;;23.11;62.08;102757.59;5092536;28;20390;-72
2021/08/25 10:03:56;;;;;;;7.40;4.13;;;;;;;23.11;62.14;102758.44;5098719;28;20024;-71
2021/08/25 10:06:24;;;;;;;7.53;4.32;;;;;;;23.12;62.17;102754.75;5091413;28;20040;-72
2021/08/25 10:08:50;;;;;;;7.68;4.63;;;;;;;23.12;62.09;102754.75;5096047;28;20043;-71
2021/08/25 10:11:19;;;;;;;6.82;4.60;;;;;;;23.13;61.99;102755.59;5098892;28;20032;-71
2021/08/25 10:13:45;;;;;;;7.10;3.90;;;;;;;23.14;61.77;102749.22;5091341;28;20028;-71
2021/08/25 10:16:12;;;;;;;8.00;4.18;;;;;;;23.14;62.04;102750.06;5093558;28;20654;-71
2021/08/25 10:18:38;;;;;;;7.30;3.67;;;;;;;23.14;62.09;102752.72;5090999;28;20080;-71
2021/08/25 10:21:38;;;;;;;6.43;3.92;;;;;;;23.10;61.23;102743.38;5091673;28;20479;-72
2021/08/25 10:24:05;;;;;;;4.90;3.55;;;;;;;23.14;61.27;102736.66;5087549;28;20035;-72
2021/08/25 10:26:32;;;;;;;5.93;4.20;;;;;;;23.15;61.19;102740.19;5097552;28;20056;-71
2021/08/25 10:29:11;;;;;;;5.40;3.70;;;;;;;23.12;61.42;102729.81;5112076;28;20085;-71
2021/08/25 10:31:49;;;;;;;6.53;3.75;;;;;;;23.12;61.06;102727.13;5101013;28;20067;-71
2021/08/25 10:34:16;;;;;;;5.75;3.53;;;;;;;23.15;61.11;102730.31;5100887;28;20036;-72
2021/08/25 10:36:42;;;;;;;5.82;3.60;;;;;;;23.16;61.37;102721.25;5091273;28;20035;-71
2021/08/25 10:39:29;;;;;;;6.38;3.67;;;;;;;23.13;61.24;102721.59;5088542;28;20041;-71
2021/08/25 10:41:56;;;;;;;7.82;4.80;;;;;;;23.17;61.31;102720.25;5111682;28;20478;-71
2021/08/25 10:44:36;;;;;;;7.88;4.70;;;;;;;23.15;61.39;102718.75;5107491;28;20032;-71
2021/08/25 10:47:04;;;;;;;6.93;3.45;;;;;;;23.17;60.91;102709.53;5091104;28;20036;-71
2021/08/25 10:49:40;;;;;;;7.35;4.30;;;;;;;23.15;60.65;102708.88;5087013;28;20042;-71
2021/08/25 10:52:15;;;;;;;6.90;4.20;;;;;;;23.17;60.89;102703.34;5088586;28;20085;-72
2021/08/25 10:54:44;;;;;;;6.95;4.00;;;;;;;23.18;60.75;102715.72;5098277;28;20020;-71
2021/08/25 10:57:12;;;;;;;5.63;3.40;;;;;;;23.18;61.11;102700.50;5088391;28;20032;-71
2021/08/25 10:59:37;;;;;;;6.90;4.07;;;;;;;23.19;61.00;102706.69;5096120;28;20032;-72
2021/08/25 11:02:03;;;;;;;5.63;3.63;;;;;;;23.19;60.90;102702.16;5097946;28;20043;-72
2021/08/25 11:04:28;;;;;;;5.50;3.88;;;;;;;23.19;61.09;102699.47;5097833;28;20735;-72
2021/08/25 11:07:02;;;;;;;6.22;3.72;;;;;;;23.21;60.71;102699.34;5098573;28;20039;-71
2021/08/25 11:09:56;;;;;;;4.72;3.42;;;;;;;23.16;61.09;102696.31;5091307;28;20566;-69
2021/08/25 11:12:23;;;;;;;4.68;3.28;;;;;;;23.22;60.76;102695.66;5073121;28;20055;-72
2021/08/25 11:14:51;;;;;;;5.30;3.58;;;;;;;23.22;60.72;102695.66;5080191;28;20043;-72
2021/08/25 11:17:42;;;;;;;4.05;3.05;;;;;;;23.23;61.00;102694.63;5086060;28;20138;-71
2021/08/25 11:20:09;;;;;;;5.45;3.42;;;;;;;23.23;61.24;102697.31;5094887;28;20085;-71
2021/08/25 11:22:38;;;;;;;7.85;3.72;;;;;;;23.23;61.02;102694.63;5094716;28;20127;-71
2021/08/25 11:25:17;;;;;;;5.60;3.60;;;;;;;23.22;61.09;102696.47;5093920;28;20034;-71